sensor_id;sensor_type;location;lat;lon;timestamp;temperature;humidity
39919;DHT22;25589;51.552;13.424;2022-11-20T00:00:46;0.90;99.90
39919;DHT22;25589;51.552;13.424;2022-11-20T00:05:38;0.30;99.90
39919;DHT22;25589;51.552;13.424;2022-11-20T00:08:04;1.00;99.90
39919;DHT22;25589;51.552;13.424;2022-11-20T00:10:30;0.90;99.90
39919;DHT22;25589;51.552;13.424;2022-11-20T00:12:57;0.90;99.90
39919;DHT22;25589;51.552;13.424;2022-11-20T00:15:23;0.30;99.90
39919;DHT22;25589;51.552;13.424;2022-11-20T00:17:49;0.70;99.90
39919;DHT22;25589;51.552;13.424;2022-11-20T00:20:14;1.00;99.90
39919;DHT22;25589;51.552;13.424;2022-11-20T00:22:40;1.50;99.90
39919;DHT22;25589;51.552;13.424;2022-11-20T00:25:05;0.90;99.90
39919;DHT22;25589;51.552;13.424;2022-11-20T00:27:31;0.90;99.90
39919;DHT22;25589;51.552;13.424;2022-11-20T00:29:57;2.10;99.90
39919;DHT22;25589;51.552;13.424;2022-11-20T00:32:22;0.70;99.90
39919;DHT22;25589;51.552;13.424;2022-11-20T00:34:48;1.60;99.90
39919;DHT22;25589;51.552;13.424;2022-11-20T00:37:13;0.70;99.90
39919;DHT22;25589;51.552;13.424;2022-11-20T00:39:39;0.80;99.90
39919;DHT22;25589;51.552;13.424;2022-11-20T00:42:04;0.00;99.90
39919;DHT22;25589;51.552;13.424;2022-11-20T00:44:30;2.20;99.90
39919;DHT22;25589;51.552;13.424;2022-11-20T00:46:55;2.70;99.90
39919;DHT22;25589;51.552;13.424;2022-11-20T00:49:21;0.80;99.90
39919;DHT22;25589;51.552;13.424;2022-11-20T00:51:46;1.30;99.90
39919;DHT22;25589;51.552;13.424;2022-11-20T00:54:12;1.30;99.90
39919;DHT22;25589;51.552;13.424;2022-11-20T00:56:37;1.90;99.90
39919;DHT22;25589;51.552;13.424;2022-11-20T00:59:03;0.80;99.90
39919;DHT22;25589;51.552;13.424;2022-11-20T01:01:29;0.30;99.90
39919;DHT22;25589;51.552;13.424;2022-11-20T01:03:57;0.70;99.90
39919;DHT22;25589;51.552;13.424;2022-11-20T01:06:26;1.00;99.90
39919;DHT22;25589;51.552;13.424;2022-11-20T01:08:54;0.60;99.90
39919;DHT22;25589;51.552;13.424;2022-11-20T01:11:26;1.00;99.90
39919;DHT22;25589;51.552;13.424;2022-11-20T01:13:53;0.50;99.90
39919;DHT22;25589;51.552;13.424;2022-11-20T01:16:22;0.70;99.90
39919;DHT22;25589;51.552;13.424;2022-11-20T01:18:50;1.90;99.90
39919;DHT22;25589;51.552;13.424;2022-11-20T01:23:45;0.60;99.90
39919;DHT22;25589;51.552;13.424;2022-11-20T01:26:17;0.50;99.90
39919;DHT22;25589;51.552;13.424;2022-11-20T01:28:43;0.50;99.90
39919;DHT22;25589;51.552;13.424;2022-11-20T01:31:27;0.50;99.90
39919;DHT22;25589;51.552;13.424;2022-11-20T01:33:55;0.50;99.90
39919;DHT22;25589;51.552;13.424;2022-11-20T01:36:22;1.10;99.90
39919;DHT22;25589;51.552;13.424;2022-11-20T01:38:52;-0.20;99.90
39919;DHT22;25589;51.552;13.424;2022-11-20T01:41:18;0.70;99.90
39919;DHT22;25589;51.552;13.424;2022-11-20T01:44:04;0.20;99.90
39919;DHT22;25589;51.552;13.424;2022-11-20T01:46:32;-0.20;99.90
39919;DHT22;25589;51.552;13.424;2022-11-20T01:49:04;0.10;99.90
39919;DHT22;25589;51.552;13.424;2022-11-20T01:54:39;-0.20;99.90
39919;DHT22;25589;51.552;13.424;2022-11-20T01:59:38;0.40;99.90
39919;DHT22;25589;51.552;13.424;2022-11-20T02:02:06;-0.20;99.90
39919;DHT22;25589;51.552;13.424;2022-11-20T02:04:31;-0.20;99.90
39919;DHT22;25589;51.552;13.424;2022-11-20T02:07:01;-0.20;99.90
39919;DHT22;25589;51.552;13.424;2022-11-20T02:09:28;-0.60;99.90
39919;DHT22;25589;51.552;13.424;2022-11-20T02:11:54;-0.30;99.90
39919;DHT22;25589;51.552;13.424;2022-11-20T02:14:21;-0.50;99.90
39919;DHT22;25589;51.552;13.424;2022-11-20T02:16:48;-0.70;99.90
39919;DHT22;25589;51.552;13.424;2022-11-20T02:19:32;-0.10;99.90
39919;DHT22;25589;51.552;13.424;2022-11-20T02:25:46;-0.40;99.90
39919;DHT22;25589;51.552;13.424;2022-11-20T02:28:12;-0.40;99.90
39919;DHT22;25589;51.552;13.424;2022-11-20T02:30:38;-0.70;99.90
39919;DHT22;25589;51.552;13.424;2022-11-20T02:33:03;0.20;99.90
39919;DHT22;25589;51.552;13.424;2022-11-20T02:37:56;0.10;99.90
39919;DHT22;25589;51.552;13.424;2022-11-20T02:40:22;0.60;99.90
39919;DHT22;25589;51.552;13.424;2022-11-20T02:42:52;-0.40;99.90
39919;DHT22;25589;51.552;13.424;2022-11-20T02:45:17;0.80;99.90
39919;DHT22;25589;51.552;13.424;2022-11-20T02:47:43;-0.30;99.90
39919;DHT22;25589;51.552;13.424;2022-11-20T02:50:08;-0.60;99.90
39919;DHT22;25589;51.552;13.424;2022-11-20T02:52:34;-0.30;99.90
39919;DHT22;25589;51.552;13.424;2022-11-20T02:54:59;-0.60;99.90
39919;DHT22;25589;51.552;13.424;2022-11-20T02:57:25;0.60;99.90
39919;DHT22;25589;51.552;13.424;2022-11-20T02:59:51;-0.60;99.90
39919;DHT22;25589;51.552;13.424;2022-11-20T03:02:16;0.30;99.90
39919;DHT22;25589;51.552;13.424;2022-11-20T03:04:42;-0.10;99.90
39919;DHT22;25589;51.552;13.424;2022-11-20T03:07:08;-0.20;99.90
39919;DHT22;25589;51.552;13.424;2022-11-20T03:09:33;-0.80;99.90
39919;DHT22;25589;51.552;13.424;2022-11-20T03:11:59;-1.70;99.90
39919;DHT22;25589;51.552;13.424;2022-11-20T03:14:25;-0.50;99.90
39919;DHT22;25589;51.552;13.424;2022-11-20T03:16:50;-0.70;99.90
39919;DHT22;25589;51.552;13.424;2022-11-20T03:21:41;-1.20;99.90
39919;DHT22;25589;51.552;13.424;2022-11-20T03:24:07;-0.90;99.90
39919;DHT22;25589;51.552;13.424;2022-11-20T03:26:33;-0.70;99.90
39919;DHT22;25589;51.552;13.424;2022-11-20T03:29:00;-0.90;99.90
39919;DHT22;25589;51.552;13.424;2022-11-20T03:31:29;-1.20;99.90
39919;DHT22;25589;51.552;13.424;2022-11-20T03:33:57;-0.20;99.90
39919;DHT22;25589;51.552;13.424;2022-11-20T03:36:23;-0.60;99.90
39919;DHT22;25589;51.552;13.424;2022-11-20T03:38:49;-1.20;99.90
39919;DHT22;25589;51.552;13.424;2022-11-20T03:41:20;-1.30;99.90
39919;DHT22;25589;51.552;13.424;2022-11-20T03:43:51;-1.30;99.90
39919;DHT22;25589;51.552;13.424;2022-11-20T03:46:17;-1.40;99.90
39919;DHT22;25589;51.552;13.424;2022-11-20T03:48:43;-0.20;99.90
39919;DHT22;25589;51.552;13.424;2022-11-20T03:53:35;-0.80;99.90
39919;DHT22;25589;51.552;13.424;2022-11-20T03:56:01;-1.20;99.90
39919;DHT22;25589;51.552;13.424;2022-11-20T03:58:26;-1.40;99.90
39919;DHT22;25589;51.552;13.424;2022-11-20T04:00:52;-0.60;99.90
39919;DHT22;25589;51.552;13.424;2022-11-20T04:03:17;0.30;99.90
39919;DHT22;25589;51.552;13.424;2022-11-20T04:05:43;-1.80;99.90
39919;DHT22;25589;51.552;13.424;2022-11-20T04:08:09;-1.50;99.90
39919;DHT22;25589;51.552;13.424;2022-11-20T04:10:34;-0.90;99.90
39919;DHT22;25589;51.552;13.424;2022-11-20T04:13:00;-2.00;99.90
39919;DHT22;25589;51.552;13.424;2022-11-20T04:15:26;0.00;99.90
39919;DHT22;25589;51.552;13.424;2022-11-20T04:17:51;-1.40;99.90
39919;DHT22;25589;51.552;13.424;2022-11-20T04:20:17;-1.30;99.90
39919;DHT22;25589;51.552;13.424;2022-11-20T04:22:42;-1.40;99.90
39919;DHT22;25589;51.552;13.424;2022-11-20T04:25:08;-0.70;99.90
39919;DHT22;25589;51.552;13.424;2022-11-20T04:27:33;-1.30;99.90
39919;DHT22;25589;51.552;13.424;2022-11-20T04:29:59;-1.30;99.90
39919;DHT22;25589;51.552;13.424;2022-11-20T04:32:24;-1.40;99.90
39919;DHT22;25589;51.552;13.424;2022-11-20T04:34:50;-1.30;99.90
39919;DHT22;25589;51.552;13.424;2022-11-20T04:37:16;-0.90;99.90
39919;DHT22;25589;51.552;13.424;2022-11-20T04:39:41;-0.50;99.90
39919;DHT22;25589;51.552;13.424;2022-11-20T04:42:08;-1.20;99.90
39919;DHT22;25589;51.552;13.424;2022-11-20T04:44:53;-1.00;99.90
39919;DHT22;25589;51.552;13.424;2022-11-20T04:47:18;-1.40;99.90
39919;DHT22;25589;51.552;13.424;2022-11-20T04:49:44;-1.50;99.90
39919;DHT22;25589;51.552;13.424;2022-11-20T04:52:10;-1.10;99.90
39919;DHT22;25589;51.552;13.424;2022-11-20T04:54:35;-1.10;99.90
39919;DHT22;25589;51.552;13.424;2022-11-20T04:57:01;-1.90;99.90
39919;DHT22;25589;51.552;13.424;2022-11-20T04:59:26;-0.30;99.90
39919;DHT22;25589;51.552;13.424;2022-11-20T05:01:52;-1.00;99.90
39919;DHT22;25589;51.552;13.424;2022-11-20T05:04:17;-1.60;99.90
39919;DHT22;25589;51.552;13.424;2022-11-20T05:06:43;-0.50;99.90
39919;DHT22;25589;51.552;13.424;2022-11-20T05:09:08;-2.10;99.90
39919;DHT22;25589;51.552;13.424;2022-11-20T05:11:34;-2.40;99.90
39919;DHT22;25589;51.552;13.424;2022-11-20T05:13:59;-2.50;99.90
39919;DHT22;25589;51.552;13.424;2022-11-20T05:16:25;-1.60;99.90
39919;DHT22;25589;51.552;13.424;2022-11-20T05:18:52;-1.70;99.90
39919;DHT22;25589;51.552;13.424;2022-11-20T05:21:18;-2.50;99.90
39919;DHT22;25589;51.552;13.424;2022-11-20T05:23:44;-1.80;99.90
39919;DHT22;25589;51.552;13.424;2022-11-20T05:26:18;-1.60;99.90
39919;DHT22;25589;51.552;13.424;2022-11-20T05:28:44;-1.80;99.90
39919;DHT22;25589;51.552;13.424;2022-11-20T05:31:19;-1.20;99.90
39919;DHT22;25589;51.552;13.424;2022-11-20T05:33:44;-1.50;99.90
39919;DHT22;25589;51.552;13.424;2022-11-20T05:36:12;-1.60;99.90
39919;DHT22;25589;51.552;13.424;2022-11-20T05:38:38;-1.10;99.90
39919;DHT22;25589;51.552;13.424;2022-11-20T05:41:08;-1.60;99.90
39919;DHT22;25589;51.552;13.424;2022-11-20T05:43:34;-1.70;99.90
39919;DHT22;25589;51.552;13.424;2022-11-20T05:46:01;-2.70;99.90
39919;DHT22;25589;51.552;13.424;2022-11-20T05:48:27;-1.80;99.90
39919;DHT22;25589;51.552;13.424;2022-11-20T05:50:53;-0.50;99.90
39919;DHT22;25589;51.552;13.424;2022-11-20T05:53:18;-0.30;99.90
39919;DHT22;25589;51.552;13.424;2022-11-20T05:55:44;-1.70;99.90
39919;DHT22;25589;51.552;13.424;2022-11-20T05:58:09;-2.40;99.90
39919;DHT22;25589;51.552;13.424;2022-11-20T06:00:35;-1.80;99.90
39919;DHT22;25589;51.552;13.424;2022-11-20T06:03:01;-1.80;99.90
39919;DHT22;25589;51.552;13.424;2022-11-20T06:05:27;-1.20;99.90
39919;DHT22;25589;51.552;13.424;2022-11-20T06:07:52;-1.70;99.90
39919;DHT22;25589;51.552;13.424;2022-11-20T06:10:18;-3.00;99.90
39919;DHT22;25589;51.552;13.424;2022-11-20T06:12:43;-1.70;99.90
39919;DHT22;25589;51.552;13.424;2022-11-20T06:15:09;-0.50;99.90
39919;DHT22;25589;51.552;13.424;2022-11-20T06:17:34;-1.70;99.90
39919;DHT22;25589;51.552;13.424;2022-11-20T06:20:00;-1.70;99.90
39919;DHT22;25589;51.552;13.424;2022-11-20T06:22:26;-0.70;99.90
39919;DHT22;25589;51.552;13.424;2022-11-20T06:24:51;-2.50;99.90
39919;DHT22;25589;51.552;13.424;2022-11-20T06:27:17;-1.70;99.90
39919;DHT22;25589;51.552;13.424;2022-11-20T06:29:42;-1.80;99.90
39919;DHT22;25589;51.552;13.424;2022-11-20T06:32:08;-1.50;99.90
39919;DHT22;25589;51.552;13.424;2022-11-20T06:34:33;-2.80;99.90
39919;DHT22;25589;51.552;13.424;2022-11-20T06:36:59;-1.80;99.90
39919;DHT22;25589;51.552;13.424;2022-11-20T06:39:24;-0.20;99.90
39919;DHT22;25589;51.552;13.424;2022-11-20T06:41:50;-1.60;99.90
39919;DHT22;25589;51.552;13.424;2022-11-20T06:44:15;-1.60;99.90
39919;DHT22;25589;51.552;13.424;2022-11-20T06:46:41;-2.80;99.90
39919;DHT22;25589;51.552;13.424;2022-11-20T06:49:06;-2.00;99.90
39919;DHT22;25589;51.552;13.424;2022-11-20T06:51:32;-2.40;99.90
39919;DHT22;25589;51.552;13.424;2022-11-20T06:53:58;-3.10;99.90
39919;DHT22;25589;51.552;13.424;2022-11-20T06:56:23;-1.70;99.90
39919;DHT22;25589;51.552;13.424;2022-11-20T06:58:49;-0.40;99.90
39919;DHT22;25589;51.552;13.424;2022-11-20T07:01:14;-1.70;99.90
39919;DHT22;25589;51.552;13.424;2022-11-20T07:03:41;-1.10;99.90
39919;DHT22;25589;51.552;13.424;2022-11-20T07:06:07;-0.40;99.90
39919;DHT22;25589;51.552;13.424;2022-11-20T07:08:33;-0.60;99.90
39919;DHT22;25589;51.552;13.424;2022-11-20T07:11:00;-1.90;99.90
39919;DHT22;25589;51.552;13.424;2022-11-20T07:13:27;-1.40;99.90
39919;DHT22;25589;51.552;13.424;2022-11-20T07:15:53;-1.50;99.90
39919;DHT22;25589;51.552;13.424;2022-11-20T07:18:18;0.00;99.90
39919;DHT22;25589;51.552;13.424;2022-11-20T07:20:44;-1.60;99.90
39919;DHT22;25589;51.552;13.424;2022-11-20T07:23:09;-1.60;99.90
39919;DHT22;25589;51.552;13.424;2022-11-20T07:25:35;-2.10;99.90
39919;DHT22;25589;51.552;13.424;2022-11-20T07:28:01;-1.50;99.90
39919;DHT22;25589;51.552;13.424;2022-11-20T07:30:28;-1.50;99.90
39919;DHT22;25589;51.552;13.424;2022-11-20T07:32:54;-1.50;99.90
39919;DHT22;25589;51.552;13.424;2022-11-20T07:35:21;-0.50;99.90
39919;DHT22;25589;51.552;13.424;2022-11-20T07:37:47;-0.60;99.90
39919;DHT22;25589;51.552;13.424;2022-11-20T07:40:14;-0.30;99.90
39919;DHT22;25589;51.552;13.424;2022-11-20T07:42:51;-1.60;99.90
39919;DHT22;25589;51.552;13.424;2022-11-20T07:50:10;-2.10;99.90
39919;DHT22;25589;51.552;13.424;2022-11-20T07:52:35;-1.20;99.90
39919;DHT22;25589;51.552;13.424;2022-11-20T07:55:01;-1.30;99.90
39919;DHT22;25589;51.552;13.424;2022-11-20T07:57:26;-2.10;99.90
39919;DHT22;25589;51.552;13.424;2022-11-20T07:59:52;0.10;99.90
39919;DHT22;25589;51.552;13.424;2022-11-20T08:02:17;-2.30;99.90
39919;DHT22;25589;51.552;13.424;2022-11-20T08:04:43;-1.20;99.90
39919;DHT22;25589;51.552;13.424;2022-11-20T08:07:08;-1.60;99.90
39919;DHT22;25589;51.552;13.424;2022-11-20T08:09:34;-0.90;99.90
39919;DHT22;25589;51.552;13.424;2022-11-20T08:11:59;-0.90;99.90
39919;DHT22;25589;51.552;13.424;2022-11-20T08:14:44;-1.00;99.90
39919;DHT22;25589;51.552;13.424;2022-11-20T08:17:09;-0.90;99.90
39919;DHT22;25589;51.552;13.424;2022-11-20T08:19:35;-0.20;99.90
39919;DHT22;25589;51.552;13.424;2022-11-20T08:22:00;0.30;99.90
39919;DHT22;25589;51.552;13.424;2022-11-20T08:24:26;-0.90;99.90
39919;DHT22;25589;51.552;13.424;2022-11-20T08:26:52;-1.00;99.90
39919;DHT22;25589;51.552;13.424;2022-11-20T08:29:18;-0.80;99.90
39919;DHT22;25589;51.552;13.424;2022-11-20T08:31:43;-0.50;99.90
39919;DHT22;25589;51.552;13.424;2022-11-20T08:34:09;-0.70;99.90
39919;DHT22;25589;51.552;13.424;2022-11-20T08:36:35;-0.60;99.90
39919;DHT22;25589;51.552;13.424;2022-11-20T08:39:01;-0.50;99.90
39919;DHT22;25589;51.552;13.424;2022-11-20T08:41:27;-0.40;99.90
39919;DHT22;25589;51.552;13.424;2022-11-20T08:43:56;-0.30;99.90
39919;DHT22;25589;51.552;13.424;2022-11-20T08:46:23;1.10;99.90
39919;DHT22;25589;51.552;13.424;2022-11-20T08:51:15;-0.30;99.90
39919;DHT22;25589;51.552;13.424;2022-11-20T08:53:41;1.00;99.90
39919;DHT22;25589;51.552;13.424;2022-11-20T08:56:07;0.10;99.90
39919;DHT22;25589;51.552;13.424;2022-11-20T08:58:34;-1.40;99.90
39919;DHT22;25589;51.552;13.424;2022-11-20T09:01:00;-0.10;99.90
39919;DHT22;25589;51.552;13.424;2022-11-20T09:03:26;0.30;99.90
39919;DHT22;25589;51.552;13.424;2022-11-20T09:08:23;0.90;99.90
39919;DHT22;25589;51.552;13.424;2022-11-20T09:10:51;-0.60;99.90
39919;DHT22;25589;51.552;13.424;2022-11-20T09:13:17;0.30;99.90
39919;DHT22;25589;51.552;13.424;2022-11-20T09:15:42;0.70;99.90
39919;DHT22;25589;51.552;13.424;2022-11-20T09:18:08;1.90;99.90
39919;DHT22;25589;51.552;13.424;2022-11-20T09:20:34;2.30;99.90
39919;DHT22;25589;51.552;13.424;2022-11-20T09:23:01;0.90;99.90
39919;DHT22;25589;51.552;13.424;2022-11-20T09:25:26;0.70;99.90
39919;DHT22;25589;51.552;13.424;2022-11-20T09:27:56;0.80;99.90
39919;DHT22;25589;51.552;13.424;2022-11-20T09:30:21;1.50;99.90
39919;DHT22;25589;51.552;13.424;2022-11-20T09:32:47;0.70;99.90
39919;DHT22;25589;51.552;13.424;2022-11-20T09:35:12;0.80;99.90
39919;DHT22;25589;51.552;13.424;2022-11-20T09:37:39;1.20;99.90
39919;DHT22;25589;51.552;13.424;2022-11-20T09:40:06;1.10;99.90
39919;DHT22;25589;51.552;13.424;2022-11-20T09:42:47;1.30;99.90
39919;DHT22;25589;51.552;13.424;2022-11-20T09:48:35;2.20;99.90
39919;DHT22;25589;51.552;13.424;2022-11-20T09:51:06;2.70;99.90
39919;DHT22;25589;51.552;13.424;2022-11-20T09:53:52;1.00;99.90
39919;DHT22;25589;51.552;13.424;2022-11-20T09:56:22;1.70;99.90
39919;DHT22;25589;51.552;13.424;2022-11-20T09:58:53;1.80;99.90
39919;DHT22;25589;51.552;13.424;2022-11-20T10:01:21;1.60;99.90
39919;DHT22;25589;51.552;13.424;2022-11-20T10:04:04;2.10;99.90
39919;DHT22;25589;51.552;13.424;2022-11-20T10:09:29;1.60;99.90
39919;DHT22;25589;51.552;13.424;2022-11-20T10:14:34;1.20;99.90
39919;DHT22;25589;51.552;13.424;2022-11-20T10:19:56;2.20;99.90
39919;DHT22;25589;51.552;13.424;2022-11-20T10:22:34;2.10;99.90
39919;DHT22;25589;51.552;13.424;2022-11-20T10:25:20;2.10;99.90
39919;DHT22;25589;51.552;13.424;2022-11-20T10:30:19;2.40;99.90
39919;DHT22;25589;51.552;13.424;2022-11-20T10:32:54;2.70;99.90
39919;DHT22;25589;51.552;13.424;2022-11-20T10:35:42;2.80;99.90
39919;DHT22;25589;51.552;13.424;2022-11-20T10:38:23;2.60;99.90
39919;DHT22;25589;51.552;13.424;2022-11-20T10:40:59;3.10;99.90
39919;DHT22;25589;51.552;13.424;2022-11-20T10:43:45;2.80;99.90
39919;DHT22;25589;51.552;13.424;2022-11-20T10:46:18;2.80;99.90
39919;DHT22;25589;51.552;13.424;2022-11-20T10:48:46;2.90;99.90
39919;DHT22;25589;51.552;13.424;2022-11-20T10:57:53;4.20;99.90
39919;DHT22;25589;51.552;13.424;2022-11-20T11:05:41;3.20;99.90
39919;DHT22;25589;51.552;13.424;2022-11-20T11:08:13;3.20;99.90
39919;DHT22;25589;51.552;13.424;2022-11-20T11:11:00;3.40;99.90
39919;DHT22;25589;51.552;13.424;2022-11-20T11:13:29;3.40;99.90
39919;DHT22;25589;51.552;13.424;2022-11-20T11:15:55;3.50;99.90
39919;DHT22;25589;51.552;13.424;2022-11-20T11:18:29;3.50;99.90
39919;DHT22;25589;51.552;13.424;2022-11-20T11:20:56;3.20;99.90
39919;DHT22;25589;51.552;13.424;2022-11-20T11:23:39;4.90;99.90
39919;DHT22;25589;51.552;13.424;2022-11-20T11:28:32;2.90;99.90
39919;DHT22;25589;51.552;13.424;2022-11-20T11:33:26;3.70;99.90
39919;DHT22;25589;51.552;13.424;2022-11-20T11:35:54;3.00;99.90
39919;DHT22;25589;51.552;13.424;2022-11-20T11:38:28;3.70;99.90
39919;DHT22;25589;51.552;13.424;2022-11-20T11:40:56;3.10;99.90
39919;DHT22;25589;51.552;13.424;2022-11-20T11:43:25;3.90;99.90
39919;DHT22;25589;51.552;13.424;2022-11-20T11:46:31;4.00;99.90
39919;DHT22;25589;51.552;13.424;2022-11-20T11:49:11;4.20;99.90
39919;DHT22;25589;51.552;13.424;2022-11-20T11:57:05;6.00;99.90
39919;DHT22;25589;51.552;13.424;2022-11-20T11:59:37;5.10;99.90
39919;DHT22;25589;51.552;13.424;2022-11-20T12:02:19;4.40;99.90
39919;DHT22;25589;51.552;13.424;2022-11-20T12:04:58;4.40;99.90
39919;DHT22;25589;51.552;13.424;2022-11-20T12:07:39;4.50;99.90
39919;DHT22;25589;51.552;13.424;2022-11-20T12:13:01;4.10;99.90
39919;DHT22;25589;51.552;13.424;2022-11-20T12:15:33;4.80;99.90
39919;DHT22;25589;51.552;13.424;2022-11-20T12:17:59;5.20;99.90
39919;DHT22;25589;51.552;13.424;2022-11-20T12:20:32;4.70;99.90
39919;DHT22;25589;51.552;13.424;2022-11-20T12:23:09;4.70;99.90
39919;DHT22;25589;51.552;13.424;2022-11-20T12:25:40;4.90;99.90
39919;DHT22;25589;51.552;13.424;2022-11-20T12:31:13;5.10;99.90
39919;DHT22;25589;51.552;13.424;2022-11-20T12:37:19;5.10;99.90
39919;DHT22;25589;51.552;13.424;2022-11-20T12:39:50;5.50;99.90
39919;DHT22;25589;51.552;13.424;2022-11-20T12:45:21;5.60;99.90
39919;DHT22;25589;51.552;13.424;2022-11-20T12:48:24;4.70;99.90
39919;DHT22;25589;51.552;13.424;2022-11-20T12:53:39;6.40;99.90
39919;DHT22;25589;51.552;13.424;2022-11-20T12:56:43;5.40;99.90
39919;DHT22;25589;51.552;13.424;2022-11-20T13:01:56;5.90;99.90
39919;DHT22;25589;51.552;13.424;2022-11-20T13:04:50;4.90;99.90
39919;DHT22;25589;51.552;13.424;2022-11-20T13:07:21;5.90;99.90
39919;DHT22;25589;51.552;13.424;2022-11-20T13:09:49;4.80;99.90
39919;DHT22;25589;51.552;13.424;2022-11-20T13:12:31;5.10;99.90
39919;DHT22;25589;51.552;13.424;2022-11-20T13:15:26;6.10;99.90
39919;DHT22;25589;51.552;13.424;2022-11-20T13:18:00;6.30;99.90
39919;DHT22;25589;51.552;13.424;2022-11-20T13:20:27;6.10;99.90
39919;DHT22;25589;51.552;13.424;2022-11-20T13:22:55;5.20;99.90
39919;DHT22;25589;51.552;13.424;2022-11-20T13:27:50;4.20;99.90
39919;DHT22;25589;51.552;13.424;2022-11-20T13:30:21;5.20;99.90
39919;DHT22;25589;51.552;13.424;2022-11-20T13:32:55;5.20;99.90
39919;DHT22;25589;51.552;13.424;2022-11-20T13:35:53;5.00;99.90
39919;DHT22;25589;51.552;13.424;2022-11-20T13:38:19;5.70;99.90
39919;DHT22;25589;51.552;13.424;2022-11-20T13:40:54;4.90;99.90
39919;DHT22;25589;51.552;13.424;2022-11-20T13:43:26;5.90;99.90
39919;DHT22;25589;51.552;13.424;2022-11-20T13:46:01;5.00;99.90
39919;DHT22;25589;51.552;13.424;2022-11-20T13:48:41;5.10;99.90
39919;DHT22;25589;51.552;13.424;2022-11-20T13:51:29;6.40;99.90
39919;DHT22;25589;51.552;13.424;2022-11-20T13:54:20;5.50;99.90
39919;DHT22;25589;51.552;13.424;2022-11-20T13:57:13;5.70;99.90
39919;DHT22;25589;51.552;13.424;2022-11-20T14:02:24;6.40;99.90
39919;DHT22;25589;51.552;13.424;2022-11-20T14:04:52;6.20;99.90
39919;DHT22;25589;51.552;13.424;2022-11-20T14:07:21;6.10;99.90
39919;DHT22;25589;51.552;13.424;2022-11-20T14:09:56;4.90;99.90
39919;DHT22;25589;51.552;13.424;2022-11-20T14:12:32;6.50;99.90
39919;DHT22;25589;51.552;13.424;2022-11-20T14:14:58;6.70;99.90
39919;DHT22;25589;51.552;13.424;2022-11-20T14:17:31;5.20;99.90
39919;DHT22;25589;51.552;13.424;2022-11-20T14:20:05;5.00;99.90
39919;DHT22;25589;51.552;13.424;2022-11-20T14:22:31;4.70;99.90
39919;DHT22;25589;51.552;13.424;2022-11-20T14:27:40;3.40;99.90
39919;DHT22;25589;51.552;13.424;2022-11-20T14:30:13;4.80;99.90
39919;DHT22;25589;51.552;13.424;2022-11-20T14:32:39;3.90;99.90
39919;DHT22;25589;51.552;13.424;2022-11-20T14:35:15;3.70;99.90
39919;DHT22;25589;51.552;13.424;2022-11-20T14:37:44;3.70;99.90
39919;DHT22;25589;51.552;13.424;2022-11-20T14:40:34;3.90;99.90
39919;DHT22;25589;51.552;13.424;2022-11-20T14:45:27;2.90;99.90
39919;DHT22;25589;51.552;13.424;2022-11-20T14:47:55;2.50;99.90
39919;DHT22;25589;51.552;13.424;2022-11-20T14:50:28;3.50;99.90
39919;DHT22;25589;51.552;13.424;2022-11-20T14:52:56;3.70;99.90
39919;DHT22;25589;51.552;13.424;2022-11-20T14:55:34;3.60;99.90
39919;DHT22;25589;51.552;13.424;2022-11-20T14:58:05;4.60;99.90
39919;DHT22;25589;51.552;13.424;2022-11-20T15:00:33;3.50;99.90
39919;DHT22;25589;51.552;13.424;2022-11-20T15:02:59;4.50;99.90
39919;DHT22;25589;51.552;13.424;2022-11-20T15:05:45;3.40;99.90
39919;DHT22;25589;51.552;13.424;2022-11-20T15:08:12;3.30;99.90
39919;DHT22;25589;51.552;13.424;2022-11-20T15:10:39;4.60;99.90
39919;DHT22;25589;51.552;13.424;2022-11-20T15:15:54;2.70;99.90
39919;DHT22;25589;51.552;13.424;2022-11-20T15:18:40;3.30;99.90
39919;DHT22;25589;51.552;13.424;2022-11-20T15:21:14;1.70;99.90
39919;DHT22;25589;51.552;13.424;2022-11-20T15:23:40;2.90;99.90
39919;DHT22;25589;51.552;13.424;2022-11-20T15:26:11;2.50;99.90
39919;DHT22;25589;51.552;13.424;2022-11-20T15:28:40;2.80;99.90
39919;DHT22;25589;51.552;13.424;2022-11-20T15:31:06;2.90;99.90
39919;DHT22;25589;51.552;13.424;2022-11-20T15:33:34;2.80;99.90
39919;DHT22;25589;51.552;13.424;2022-11-20T15:36:00;2.70;99.90
39919;DHT22;25589;51.552;13.424;2022-11-20T15:38:26;2.70;99.90
39919;DHT22;25589;51.552;13.424;2022-11-20T15:40:51;2.60;99.90
39919;DHT22;25589;51.552;13.424;2022-11-20T15:43:17;3.10;99.90
39919;DHT22;25589;51.552;13.424;2022-11-20T15:45:45;2.50;99.90
39919;DHT22;25589;51.552;13.424;2022-11-20T15:48:24;2.40;99.90
39919;DHT22;25589;51.552;13.424;2022-11-20T15:53:28;2.60;99.90
39919;DHT22;25589;51.552;13.424;2022-11-20T15:55:54;2.30;99.90
39919;DHT22;25589;51.552;13.424;2022-11-20T15:58:19;2.90;99.90
39919;DHT22;25589;51.552;13.424;2022-11-20T16:00:45;2.00;99.90
39919;DHT22;25589;51.552;13.424;2022-11-20T16:03:16;3.20;99.90
39919;DHT22;25589;51.552;13.424;2022-11-20T16:05:42;2.90;99.90
39919;DHT22;25589;51.552;13.424;2022-11-20T16:08:07;1.70;99.90
39919;DHT22;25589;51.552;13.424;2022-11-20T16:10:33;3.20;99.90
39919;DHT22;25589;51.552;13.424;2022-11-20T16:12:59;2.00;99.90
39919;DHT22;25589;51.552;13.424;2022-11-20T16:15:50;2.00;99.90
39919;DHT22;25589;51.552;13.424;2022-11-20T16:18:19;3.30;99.90
39919;DHT22;25589;51.552;13.424;2022-11-20T16:20:54;1.30;99.90
39919;DHT22;25589;51.552;13.424;2022-11-20T16:23:20;1.10;99.90
39919;DHT22;25589;51.552;13.424;2022-11-20T16:25:46;1.90;99.90
39919;DHT22;25589;51.552;13.424;2022-11-20T16:28:12;2.50;99.90
39919;DHT22;25589;51.552;13.424;2022-11-20T16:30:39;1.70;99.90
39919;DHT22;25589;51.552;13.424;2022-11-20T16:33:09;1.10;99.90
39919;DHT22;25589;51.552;13.424;2022-11-20T16:35:36;1.70;99.90
39919;DHT22;25589;51.552;13.424;2022-11-20T16:38:02;1.60;99.90
39919;DHT22;25589;51.552;13.424;2022-11-20T16:40:27;1.00;99.90
39919;DHT22;25589;51.552;13.424;2022-11-20T16:42:53;2.90;99.90
39919;DHT22;25589;51.552;13.424;2022-11-20T16:45:18;0.40;99.90
39919;DHT22;25589;51.552;13.424;2022-11-20T16:47:44;1.60;99.90
39919;DHT22;25589;51.552;13.424;2022-11-20T16:50:09;1.70;99.90
39919;DHT22;25589;51.552;13.424;2022-11-20T16:52:35;1.70;99.90
39919;DHT22;25589;51.552;13.424;2022-11-20T16:55:01;0.40;99.90
39919;DHT22;25589;51.552;13.424;2022-11-20T16:57:28;2.50;99.90
39919;DHT22;25589;51.552;13.424;2022-11-20T16:59:54;1.60;99.90
39919;DHT22;25589;51.552;13.424;2022-11-20T17:02:21;1.60;99.90
39919;DHT22;25589;51.552;13.424;2022-11-20T17:04:46;1.80;99.90
39919;DHT22;25589;51.552;13.424;2022-11-20T17:07:12;0.70;99.90
39919;DHT22;25589;51.552;13.424;2022-11-20T17:09:38;1.20;99.90
39919;DHT22;25589;51.552;13.424;2022-11-20T17:12:04;1.60;99.90
39919;DHT22;25589;51.552;13.424;2022-11-20T17:14:30;1.00;99.90
39919;DHT22;25589;51.552;13.424;2022-11-20T17:16:55;2.90;99.90